createdAt,value
2023-04-23T00:00:51.466Z,197.30
2023-04-23T00:04:57.939Z,192.73
2023-04-23T00:09:01.972Z,185.60
2023-04-23T00:13:05.428Z,179.48
2023-04-23T00:17:09.715Z,185.30
2023-04-23T00:21:12.969Z,174.53
2023-04-23T00:25:16.101Z,187.03
2023-04-23T00:29:19.061Z,188.63
2023-04-23T00:33:24.053Z,185.63
2023-04-23T00:37:27.078Z,187.45
2023-04-23T00:41:30.180Z,189.85
2023-04-23T00:45:33.266Z,189.70
2023-04-23T00:49:39.366Z,188.27
2023-04-23T00:53:42.357Z,192.07
2023-04-23T00:57:45.515Z,191.80
2023-04-23T01:01:49.103Z,189.50
2023-04-23T01:05:53.837Z,195.60
2023-04-23T01:09:57.151Z,196.77
2023-04-23T01:14:01.321Z,197.80
2023-04-23T01:18:04.708Z,196.80
2023-04-23T01:22:12.093Z,197.73
2023-04-23T01:26:15.370Z,197.75
2023-04-23T01:30:18.471Z,196.90
2023-04-23T01:34:22.678Z,196.65
2023-04-23T01:38:29.687Z,196.80
2023-04-23T01:42:32.641Z,197.70
2023-04-23T01:46:36.155Z,197.40
2023-04-23T01:50:39.796Z,197.35
2023-04-23T01:54:44.207Z,204.45
2023-04-23T01:58:47.241Z,199.63
2023-04-23T02:02:51.585Z,198.40
2023-04-23T02:06:54.658Z,198.63
2023-04-23T02:10:59.037Z,199.40
2023-04-23T02:15:02.135Z,198.63
2023-04-23T02:19:05.509Z,198.10
2023-04-23T02:31:15.917Z,195.30
2023-04-23T02:35:18.966Z,198.40
2023-04-23T02:43:26.272Z,202.82
2023-04-23T02:51:33.530Z,201.80
2023-04-23T02:55:36.971Z,199.57
2023-04-23T02:59:41.358Z,199.80
2023-04-23T03:03:44.861Z,197.55
2023-04-23T03:19:58.225Z,199.50
2023-04-23T03:24:01.264Z,199.57
2023-04-23T03:28:04.290Z,200.65
2023-04-23T03:32:08.617Z,198.90
2023-04-23T03:36:11.680Z,199.75
2023-04-23T03:40:14.777Z,202.45
2023-04-23T03:44:17.764Z,199.35
2023-04-23T03:48:22.099Z,203.70
2023-04-23T03:52:25.734Z,203.47
2023-04-23T03:56:28.692Z,202.50
2023-04-23T04:00:31.701Z,201.83
2023-04-23T04:04:36.738Z,202.57
2023-04-23T04:08:39.907Z,200.57
2023-04-23T04:12:44.979Z,201.40
2023-04-23T04:16:48.021Z,198.00
2023-04-23T04:20:53.388Z,200.70
2023-04-23T04:24:57.467Z,200.50
2023-04-23T04:29:01.654Z,200.80
2023-04-23T04:33:04.825Z,199.60
2023-04-23T04:37:10.963Z,200.40
2023-04-23T04:41:14.323Z,201.10
2023-04-23T04:45:17.309Z,199.83
2023-04-23T04:49:21.917Z,201.30
2023-04-23T04:53:26.222Z,200.40
2023-04-23T04:57:29.216Z,199.50
2023-04-23T05:01:32.508Z,199.70
2023-04-23T05:05:35.578Z,200.30
2023-04-23T05:09:39.888Z,195.60
2023-04-23T05:13:42.850Z,198.80
2023-04-23T05:17:46.111Z,198.50
2023-04-23T05:21:49.164Z,198.63
2023-04-23T08:24:39.585Z,186.70
2023-04-23T08:28:42.575Z,182.70
2023-04-23T08:32:51.151Z,189.10
2023-04-23T08:36:54.381Z,191.60
2023-04-23T08:41:00.163Z,194.10
2023-04-23T08:45:04.513Z,193.23
2023-04-23T08:49:09.443Z,193.55
2023-04-23T08:53:16.677Z,192.20
2023-04-23T08:57:21.316Z,195.87
2023-04-23T09:01:24.347Z,194.35
2023-04-23T09:05:28.573Z,191.63
2023-04-23T09:09:32.249Z,192.50
2023-04-23T09:13:37.149Z,191.80
2023-04-23T09:17:43.995Z,193.55
2023-04-23T09:21:47.691Z,194.10
2023-04-23T09:25:50.739Z,194.93
2023-04-23T09:29:57.408Z,192.65
2023-04-23T09:34:00.705Z,194.40
2023-04-23T09:38:07.768Z,195.43
2023-04-23T09:42:12.805Z,194.75
2023-04-23T09:46:17.173Z,195.90
2023-04-23T09:50:20.566Z,194.65
2023-04-23T09:54:25.862Z,197.65
2023-04-23T09:58:29.181Z,196.45
2023-04-23T10:02:33.980Z,201.27
2023-04-23T10:06:44.403Z,194.90
2023-04-23T10:11:09.540Z,194.57
2023-04-23T10:15:16.997Z,194.80
2023-04-23T10:19:23.832Z,195.90
2023-04-23T10:23:27.312Z,196.57
2023-04-23T10:27:48.312Z,194.70
2023-04-23T10:31:55.829Z,196.70
2023-04-23T10:36:01.293Z,193.67
2023-04-23T10:40:11.459Z,194.53
2023-04-23T10:44:17.214Z,195.30
2023-04-23T10:48:21.698Z,199.73
2023-04-23T10:52:26.302Z,201.87
2023-04-23T10:56:29.382Z,201.20
2023-04-23T11:00:46.032Z,195.45
2023-04-23T11:04:56.062Z,204.27
2023-04-23T11:09:00.504Z,189.45
2023-04-23T11:13:24.426Z,187.88
2023-04-23T11:21:58.715Z,204.93
2023-04-23T11:26:04.214Z,200.18
2023-04-23T11:30:11.663Z,189.75
2023-04-23T11:34:14.870Z,189.63
2023-04-23T11:38:17.883Z,191.93
2023-04-23T11:46:25.142Z,193.88
2023-04-23T11:50:30.061Z,194.18
2023-04-23T11:54:33.542Z,194.68
2023-04-23T11:58:39.371Z,199.80
2023-04-23T12:02:55.489Z,198.70
2023-04-23T12:06:59.509Z,199.90
2023-04-23T12:11:06.201Z,200.57
2023-04-23T12:19:15.651Z,197.88
2023-04-23T12:23:18.682Z,197.05
2023-04-23T12:27:22.954Z,198.73
2023-04-23T12:31:29.005Z,196.05
2023-04-23T12:35:40.311Z,199.45
2023-04-23T12:39:43.714Z,198.50
2023-04-23T12:43:48.798Z,199.90
2023-04-23T12:47:53.266Z,197.95
2023-04-23T12:52:01.030Z,194.30
2023-04-23T12:56:04.211Z,194.80
2023-04-23T13:00:09.016Z,196.33
2023-04-23T13:04:13.438Z,196.30
2023-04-23T13:08:16.563Z,196.65
2023-04-23T13:12:19.590Z,196.83
2023-04-23T13:16:22.666Z,194.07
2023-04-23T13:20:27.223Z,196.10
2023-04-23T13:24:30.185Z,196.73
2023-04-23T13:28:33.223Z,197.27
2023-04-23T13:32:36.276Z,196.67
2023-04-23T13:36:42.264Z,196.50
2023-04-23T13:40:45.258Z,195.15
2023-04-23T13:44:48.226Z,195.60
2023-04-23T13:48:51.233Z,195.40
2023-04-23T13:52:55.761Z,195.40
2023-04-23T13:56:58.861Z,195.90
2023-04-23T14:01:02.129Z,195.20
2023-04-23T14:05:06.606Z,196.50
2023-04-23T14:09:11.626Z,194.67
2023-04-23T14:13:14.652Z,194.80
2023-04-23T14:17:17.779Z,195.75
2023-04-23T14:21:20.802Z,193.90
2023-04-23T14:25:31.588Z,197.10
2023-04-23T14:29:37.945Z,192.63
2023-04-23T14:33:41.189Z,193.80
2023-04-23T14:37:45.589Z,193.48
2023-04-23T14:41:56.616Z,191.45
2023-04-23T14:45:59.655Z,192.00
2023-04-23T14:50:02.747Z,193.15
2023-04-23T14:54:06.699Z,190.20
2023-04-23T14:58:11.171Z,192.30
2023-04-23T15:02:14.350Z,190.30
2023-04-23T15:06:17.525Z,190.03
2023-04-23T15:10:23.262Z,192.57
2023-04-23T15:14:33.252Z,191.00
2023-04-23T15:18:38.292Z,193.57
2023-04-23T15:22:42.052Z,191.05
2023-04-23T15:26:47.044Z,206.75
2023-04-23T15:30:59.410Z,199.88
2023-04-23T15:35:02.421Z,193.45
2023-04-23T15:39:10.920Z,187.20
2023-04-23T15:43:14.444Z,190.55
2023-04-23T15:47:21.568Z,191.67
2023-04-23T15:51:26.356Z,190.73
2023-04-23T15:55:29.641Z,196.27
2023-04-23T15:59:32.675Z,205.38
2023-04-23T16:03:37.285Z,190.63
2023-04-23T16:11:45.515Z,190.60
2023-04-23T16:15:48.647Z,189.38
2023-04-23T16:19:52.959Z,188.63
2023-04-23T16:23:55.992Z,189.77
2023-04-23T16:27:59.078Z,191.10
2023-04-23T16:32:02.199Z,188.50
2023-04-23T16:36:07.206Z,187.70
2023-04-23T16:40:11.116Z,189.30
2023-04-23T16:44:23.493Z,189.30
2023-04-23T16:48:27.569Z,187.80
2023-04-23T16:52:31.935Z,189.10
2023-04-23T16:56:34.977Z,188.10
2023-04-23T17:00:38.483Z,186.67
2023-04-23T17:04:41.772Z,186.80
2023-04-23T17:08:49.328Z,185.50
2023-04-23T17:12:54.366Z,187.70
2023-04-23T17:16:57.488Z,188.70
2023-04-23T17:21:00.497Z,190.95
2023-04-23T17:25:06.277Z,191.07
2023-04-23T17:29:16.639Z,191.90
2023-04-23T17:33:19.697Z,190.97
2023-04-23T17:37:22.758Z,191.50
2023-04-23T17:41:30.379Z,187.90
2023-04-23T17:45:33.489Z,182.55
2023-04-23T17:49:36.802Z,179.30
2023-04-23T17:53:39.830Z,181.57
2023-04-23T17:57:44.182Z,181.50
2023-04-23T18:01:47.203Z,179.70
2023-04-23T18:05:54.092Z,179.40
2023-04-23T18:09:57.116Z,178.50
2023-04-23T18:14:04.673Z,177.40
2023-04-23T18:18:07.760Z,179.50
2023-04-23T18:22:10.860Z,184.00
2023-04-23T18:26:13.848Z,181.50
2023-04-23T18:30:23.149Z,184.30
2023-04-23T18:34:26.334Z,184.80
2023-04-23T18:38:32.861Z,186.20
2023-04-23T18:42:37.127Z,188.00
2023-04-23T18:46:41.555Z,187.83
2023-04-23T18:50:49.981Z,186.90
2023-04-23T18:54:53.419Z,188.13
2023-04-23T18:58:56.456Z,188.85
2023-04-23T19:03:06.459Z,186.00
2023-04-23T19:07:12.380Z,183.40
2023-04-23T19:11:15.489Z,188.95
2023-04-23T19:15:19.101Z,187.65
2023-04-23T19:19:24.463Z,187.60
2023-04-23T19:23:27.553Z,188.93
2023-04-23T19:27:30.578Z,188.32
2023-04-23T19:31:33.832Z,190.87
2023-04-23T19:35:40.103Z,191.40
2023-04-23T19:39:43.558Z,192.00
2023-04-23T19:43:47.610Z,191.35
2023-04-23T19:47:52.016Z,191.35
2023-04-23T19:51:59.246Z,192.23
2023-04-23T19:56:02.810Z,191.45
2023-04-23T20:00:10.627Z,192.70
2023-04-23T20:04:13.721Z,192.20
2023-04-23T20:08:26.186Z,190.55
2023-04-23T20:12:32.765Z,191.80
2023-04-23T20:16:36.507Z,188.45
2023-04-23T20:20:40.028Z,187.50
2023-04-23T20:24:46.446Z,190.93
2023-04-23T20:28:50.223Z,189.20
2023-04-23T20:32:53.412Z,191.40
2023-04-23T20:36:58.944Z,192.10
2023-04-23T20:41:04.957Z,192.05
2023-04-23T20:45:09.510Z,191.15
2023-04-23T20:49:13.125Z,192.43
2023-04-23T20:53:16.332Z,192.55
2023-04-23T20:57:21.061Z,190.90
2023-04-23T21:01:24.315Z,191.53
2023-04-23T21:05:27.550Z,190.73
2023-04-23T21:09:30.837Z,190.40
2023-04-23T21:13:35.158Z,189.60
2023-04-23T21:17:38.152Z,190.85
2023-04-23T21:21:41.463Z,190.50
2023-04-23T21:25:44.587Z,190.70
2023-04-23T21:29:49.652Z,191.20
2023-04-23T21:33:54.345Z,188.75
2023-04-23T21:37:59.395Z,190.33
2023-04-23T21:42:02.759Z,191.37
2023-04-23T21:46:07.257Z,190.50
2023-04-23T21:50:11.519Z,189.95
2023-04-23T21:54:14.491Z,190.40
2023-04-23T21:58:18.144Z,186.40
2023-04-23T22:02:22.894Z,190.35
2023-04-23T22:06:26.060Z,188.00
2023-04-23T22:10:29.120Z,193.68
2023-04-23T22:14:32.239Z,187.65
2023-04-23T22:18:36.566Z,194.85
2023-04-23T22:22:41.075Z,188.70
2023-04-23T22:30:47.226Z,187.17
2023-04-23T22:38:56.203Z,192.20
2023-04-23T22:42:59.426Z,190.38
2023-04-23T22:47:02.451Z,189.95
2023-04-23T22:51:06.987Z,189.03
2023-04-23T22:55:10.675Z,189.00
2023-04-23T22:59:13.837Z,190.90
2023-04-23T23:03:17.118Z,191.90
2023-04-23T23:07:21.685Z,190.50
2023-04-23T23:11:24.758Z,190.50
2023-04-23T23:15:27.745Z,191.50
2023-04-23T23:19:31.038Z,189.73
2023-04-23T23:23:35.557Z,191.95
2023-04-23T23:27:38.601Z,190.63
2023-04-23T23:31:41.900Z,190.05
2023-04-23T23:35:45.021Z,190.13
2023-04-23T23:39:49.350Z,189.50
2023-04-23T23:43:52.347Z,189.50
2023-04-23T23:47:55.833Z,187.50
2023-04-23T23:51:59.225Z,189.10
2023-04-23T23:56:03.993Z,191.60
